createdAt,value
2019-02-09T00:00:04.775Z,8.10
2019-02-09T00:02:45.505Z,8.10
2019-02-09T00:05:26.350Z,8.10
2019-02-09T00:08:07.552Z,8.10
2019-02-09T00:10:48.804Z,8.10
2019-02-09T00:13:29.684Z,8.00
2019-02-09T00:16:10.440Z,8.10
2019-02-09T00:18:51.438Z,8.00
2019-02-09T00:21:32.345Z,8.00
2019-02-09T00:24:12.953Z,8.00
2019-02-09T00:26:53.661Z,8.00
2019-02-09T00:29:34.336Z,8.00
2019-02-09T00:32:15.250Z,8.00
2019-02-09T00:34:56.209Z,7.90
2019-02-09T00:37:36.905Z,7.90
2019-02-09T00:40:18.017Z,7.90
2019-02-09T00:42:58.758Z,7.90
2019-02-09T00:45:39.802Z,7.90
2019-02-09T00:48:20.456Z,7.80
2019-02-09T00:51:01.548Z,7.80
2019-02-09T00:53:42.407Z,7.80
2019-02-09T00:56:23.312Z,7.80
2019-02-09T00:59:04.084Z,7.80
2019-02-09T01:01:44.806Z,7.80
2019-02-09T01:04:25.763Z,7.80
2019-02-09T01:07:06.901Z,7.80
2019-02-09T01:09:47.786Z,7.80
2019-02-09T01:12:28.422Z,7.80
2019-02-09T01:15:09.359Z,7.80
2019-02-09T01:17:50.547Z,7.80
2019-02-09T01:20:31.279Z,7.80
2019-02-09T01:23:12.322Z,7.80
2019-02-09T01:25:53.385Z,7.80
2019-02-09T01:28:33.903Z,7.80
2019-02-09T01:31:14.763Z,7.70
2019-02-09T01:33:55.631Z,7.70
2019-02-09T01:36:36.623Z,7.70
2019-02-09T01:39:17.572Z,7.80
2019-02-09T01:41:58.249Z,7.70
2019-02-09T01:44:39.267Z,7.70
2019-02-09T01:47:20.117Z,7.80
2019-02-09T01:50:00.851Z,7.80
2019-02-09T01:52:41.923Z,7.80
2019-02-09T01:55:22.741Z,7.80
2019-02-09T01:58:03.641Z,7.80
2019-02-09T02:00:44.294Z,7.80
2019-02-09T02:03:25.248Z,7.80
2019-02-09T02:06:06.226Z,7.80
2019-02-09T02:08:47.573Z,7.80
2019-02-09T02:11:28.776Z,7.80
2019-02-09T02:14:09.766Z,7.90
2019-02-09T02:16:51.063Z,7.80
2019-02-09T02:19:32.349Z,7.80
2019-02-09T02:22:13.143Z,7.80
2019-02-09T02:24:53.907Z,7.70
2019-02-09T02:27:34.897Z,7.70
2019-02-09T02:30:22.677Z,7.70
2019-02-09T02:32:58.351Z,7.60
2019-02-09T02:35:39.059Z,7.60
2019-02-09T02:38:20.086Z,7.60
2019-02-09T02:41:00.964Z,7.60
2019-02-09T02:43:42.027Z,7.50
2019-02-09T02:46:22.880Z,7.50
2019-02-09T02:49:03.750Z,7.50
2019-02-09T02:51:44.545Z,7.50
2019-02-09T02:54:25.315Z,7.50
2019-02-09T02:57:06.058Z,7.50
2019-02-09T02:59:46.754Z,7.50
2019-02-09T03:02:27.227Z,7.60
2019-02-09T03:05:08.067Z,7.60
2019-02-09T03:10:50.105Z,7.60
2019-02-09T03:13:30.930Z,7.70
2019-02-09T03:16:11.855Z,7.70
2019-02-09T03:18:52.790Z,7.70
2019-02-09T03:21:33.641Z,7.70
2019-02-09T03:24:02.416Z,7.80
2019-02-09T03:26:50.429Z,7.70
2019-02-09T03:29:38.420Z,7.80
2019-02-09T03:32:26.397Z,7.70
2019-02-09T03:35:07.085Z,7.80
2019-02-09T03:37:47.483Z,7.70
2019-02-09T03:40:28.213Z,7.80
2019-02-09T03:43:08.892Z,7.80
2019-02-09T03:45:49.769Z,7.80
2019-02-09T03:48:30.775Z,7.80
2019-02-09T03:51:11.690Z,7.80
2019-02-09T03:53:52.732Z,7.90
2019-02-09T03:56:33.460Z,7.90
2019-02-09T03:59:14.673Z,7.90
2019-02-09T04:01:55.474Z,7.90
2019-02-09T04:04:36.208Z,7.90
2019-02-09T04:07:17.077Z,7.90
2019-02-09T04:09:57.940Z,7.90
2019-02-09T04:12:38.901Z,8.00
2019-02-09T04:15:19.690Z,7.90
2019-02-09T04:18:00.376Z,7.90
2019-02-09T04:20:41.535Z,7.90
2019-02-09T04:23:22.445Z,7.90
2019-02-09T04:26:03.523Z,7.90
2019-02-09T04:28:44.145Z,8.00
2019-02-09T04:31:25.110Z,8.00
2019-02-09T04:34:05.986Z,8.00
2019-02-09T04:36:46.733Z,8.00
2019-02-09T04:39:27.921Z,8.10
2019-02-09T04:42:08.800Z,8.00
2019-02-09T04:44:49.520Z,8.10
2019-02-09T04:47:30.689Z,8.10
2019-02-09T04:50:11.572Z,8.10
2019-02-09T04:52:52.571Z,8.10
2019-02-09T04:55:33.331Z,8.20
2019-02-09T04:58:14.239Z,8.20
2019-02-09T05:00:55.032Z,8.20
2019-02-09T05:03:35.695Z,8.20
2019-02-09T05:06:16.751Z,8.20
2019-02-09T05:08:57.459Z,8.20
2019-02-09T05:11:38.111Z,8.20
2019-02-09T05:14:18.785Z,8.20
2019-02-09T05:16:59.514Z,8.20
2019-02-09T05:19:40.365Z,8.30
2019-02-09T05:22:21.066Z,8.20
2019-02-09T05:25:01.608Z,8.30
2019-02-09T05:27:42.564Z,8.30
2019-02-09T05:30:22.985Z,8.30
2019-02-09T05:33:04.147Z,8.40
2019-02-09T05:35:44.807Z,8.40
2019-02-09T05:38:25.438Z,8.40
2019-02-09T05:41:06.313Z,8.40
2019-02-09T05:43:47.100Z,8.30
2019-02-09T05:46:27.616Z,8.30
2019-02-09T05:49:08.492Z,8.30
2019-02-09T05:51:49.921Z,8.30
2019-02-09T05:54:30.606Z,8.30
2019-02-09T05:57:11.298Z,8.30
2019-02-09T05:59:52.117Z,8.30
2019-02-09T06:02:32.949Z,8.20
2019-02-09T06:05:13.667Z,8.20
2019-02-09T06:07:54.408Z,8.20
2019-02-09T06:10:34.879Z,8.20
2019-02-09T06:13:15.858Z,8.30
2019-02-09T06:15:56.434Z,8.30
2019-02-09T06:18:37.382Z,8.30
2019-02-09T06:21:18.125Z,8.30
2019-02-09T06:23:58.919Z,8.40
2019-02-09T06:26:39.984Z,8.40
2019-02-09T06:29:20.738Z,8.40
2019-02-09T06:32:01.475Z,8.40
2019-02-09T06:34:42.593Z,8.40
2019-02-09T06:37:23.168Z,8.40
2019-02-09T06:40:04.403Z,8.40
2019-02-09T06:42:45.645Z,8.40
2019-02-09T06:45:26.332Z,8.40
2019-02-09T06:48:07.168Z,8.40
2019-02-09T06:50:47.891Z,8.40
2019-02-09T06:53:28.688Z,8.30
2019-02-09T06:56:09.477Z,8.40
2019-02-09T06:58:50.588Z,8.40
2019-02-09T07:01:31.472Z,8.40
2019-02-09T07:04:12.394Z,8.40
2019-02-09T07:06:53.213Z,8.40
2019-02-09T07:09:34.041Z,8.40
2019-02-09T07:12:14.750Z,8.40
2019-02-09T07:14:55.575Z,8.40
2019-02-09T07:17:36.245Z,8.30
2019-02-09T07:20:17.369Z,8.30
2019-02-09T07:22:58.250Z,8.30
2019-02-09T07:25:38.854Z,8.40
2019-02-09T07:28:19.943Z,8.40
2019-02-09T07:31:01.339Z,8.40
2019-02-09T07:33:42.745Z,8.40
2019-02-09T07:36:11.443Z,8.40
2019-02-09T07:38:40.271Z,8.40
2019-02-09T07:41:09.246Z,8.50
2019-02-09T07:43:38.128Z,8.50
2019-02-09T07:46:06.862Z,8.50
2019-02-09T07:48:35.862Z,8.50
2019-02-09T07:51:04.632Z,8.50
2019-02-09T07:53:33.380Z,8.50
2019-02-09T07:56:02.162Z,8.50
2019-02-09T07:58:30.899Z,8.50
2019-02-09T08:00:59.659Z,8.60
2019-02-09T08:03:28.369Z,8.60
2019-02-09T08:05:57.180Z,8.60
2019-02-09T08:08:25.940Z,8.50
2019-02-09T08:10:54.801Z,8.50
2019-02-09T08:13:23.586Z,8.50
2019-02-09T08:15:52.351Z,8.50
2019-02-09T08:18:22.400Z,8.60
2019-02-09T08:20:51.153Z,8.60
2019-02-09T08:23:19.851Z,8.60
2019-02-09T08:25:49.043Z,8.60
2019-02-09T08:28:17.790Z,8.60
2019-02-09T08:30:46.668Z,8.60
2019-02-09T08:33:15.484Z,8.60
2019-02-09T08:35:44.279Z,8.60
2019-02-09T08:38:13.981Z,8.60
2019-02-09T08:40:42.720Z,8.60
2019-02-09T08:43:11.364Z,8.60
2019-02-09T08:45:40.250Z,8.60
2019-02-09T08:48:09.035Z,8.60
2019-02-09T08:50:40.431Z,8.60
2019-02-09T08:53:09.251Z,8.60
2019-02-09T08:55:37.962Z,8.70
2019-02-09T08:58:06.897Z,8.70
2019-02-09T09:00:35.766Z,8.70
2019-02-09T09:03:04.548Z,8.80
2019-02-09T09:05:33.288Z,8.80
2019-02-09T09:08:02.007Z,8.80
2019-02-09T09:10:30.702Z,8.80
2019-02-09T09:12:59.546Z,8.90
2019-02-09T09:15:30.926Z,8.90
2019-02-09T09:17:59.815Z,9.00
2019-02-09T09:20:30.769Z,9.00
2019-02-09T09:22:59.465Z,9.10
2019-02-09T09:25:28.269Z,9.20
2019-02-09T09:27:57.094Z,9.20
2019-02-09T09:30:26.603Z,9.20
2019-02-09T09:32:55.517Z,9.20
2019-02-09T09:35:24.326Z,9.30
2019-02-09T09:37:53.132Z,9.20
2019-02-09T09:40:23.982Z,9.30
2019-02-09T09:42:52.729Z,9.30
2019-02-09T09:45:23.685Z,9.30
2019-02-09T09:47:52.781Z,9.40
2019-02-09T09:50:21.827Z,9.40
2019-02-09T09:52:50.602Z,9.40
2019-02-09T09:55:19.357Z,9.40
2019-02-09T09:57:48.059Z,9.30
2019-02-09T10:00:17.343Z,9.20
2019-02-09T10:02:46.064Z,9.20
2019-02-09T10:05:14.948Z,9.20
2019-02-09T10:07:43.650Z,9.10
2019-02-09T10:10:14.583Z,9.20
2019-02-09T10:12:43.419Z,9.30
2019-02-09T10:15:14.042Z,9.40
2019-02-09T10:17:43.117Z,9.50
2019-02-09T10:20:13.790Z,9.60
2019-02-09T10:22:42.552Z,9.60
2019-02-09T10:25:11.299Z,9.60
2019-02-09T10:27:40.034Z,9.70
2019-02-09T10:30:11.907Z,9.90
2019-02-09T10:32:44.549Z,10.00
2019-02-09T10:35:11.622Z,10.10
2019-02-09T10:37:40.472Z,10.00
2019-02-09T10:40:12.270Z,10.00
2019-02-09T10:42:41.118Z,10.10
2019-02-09T10:45:12.136Z,10.00
2019-02-09T10:47:40.824Z,10.00
2019-02-09T10:50:12.332Z,10.00
2019-02-09T10:52:41.027Z,10.00
2019-02-09T10:55:09.756Z,9.90
2019-02-09T10:57:38.637Z,9.80
2019-02-09T11:00:11.965Z,9.90
2019-02-09T11:02:40.968Z,9.80
2019-02-09T11:05:10.468Z,9.90
2019-02-09T11:07:39.348Z,10.00
2019-02-09T11:10:10.075Z,10.20
2019-02-09T11:12:38.816Z,10.20
2019-02-09T11:15:09.398Z,10.10
2019-02-09T11:17:41.097Z,10.00
2019-02-09T11:20:11.908Z,10.00
2019-02-09T11:22:40.626Z,10.00
2019-02-09T11:25:10.951Z,9.90
2019-02-09T11:27:39.686Z,9.90
2019-02-09T11:30:11.524Z,9.90
2019-02-09T11:32:40.278Z,10.00
2019-02-09T11:35:09.290Z,10.00
2019-02-09T11:37:38.016Z,10.10
2019-02-09T11:40:07.200Z,10.20
2019-02-09T11:42:35.903Z,10.20
2019-02-09T11:45:05.656Z,10.20
2019-02-09T11:47:34.386Z,10.10
2019-02-09T11:50:03.155Z,10.10
2019-02-09T11:52:31.950Z,10.10
2019-02-09T11:55:00.638Z,10.00
2019-02-09T11:57:29.338Z,10.10
2019-02-09T11:59:58.187Z,10.10
2019-02-09T12:02:26.922Z,10.10
2019-02-09T12:04:55.767Z,10.10
2019-02-09T12:07:24.624Z,9.90
2019-02-09T12:09:53.316Z,9.90
2019-02-09T12:12:22.073Z,9.90
2019-02-09T12:14:50.781Z,10.00
2019-02-09T12:17:19.485Z,10.10
2019-02-09T12:19:48.238Z,10.20
2019-02-09T12:22:16.946Z,10.20
2019-02-09T12:24:45.685Z,10.20
2019-02-09T12:27:14.524Z,10.20
2019-02-09T12:29:43.851Z,10.20
2019-02-09T12:32:12.632Z,10.30
2019-02-09T12:34:41.363Z,10.40
2019-02-09T12:37:10.133Z,10.40
2019-02-09T12:39:38.857Z,10.40
2019-02-09T12:42:07.769Z,10.50
2019-02-09T12:44:36.512Z,10.50
2019-02-09T12:47:05.389Z,10.50
2019-02-09T12:49:34.112Z,10.40
2019-02-09T12:52:02.871Z,10.40
2019-02-09T12:54:31.654Z,10.30
2019-02-09T12:57:00.433Z,10.30
2019-02-09T12:59:29.150Z,10.30
2019-02-09T13:01:57.998Z,10.30
2019-02-09T13:04:26.776Z,10.40
2019-02-09T13:06:55.495Z,10.40
2019-02-09T13:09:24.307Z,10.40
2019-02-09T13:11:53.235Z,10.50
2019-02-09T13:14:23.722Z,10.60
2019-02-09T13:16:52.619Z,10.50
2019-02-09T13:19:21.378Z,10.50
2019-02-09T13:21:50.216Z,10.30
2019-02-09T13:24:19.021Z,10.20
2019-02-09T13:26:47.825Z,9.90
2019-02-09T13:29:16.602Z,9.70
2019-02-09T13:31:45.376Z,9.70
2019-02-09T13:34:14.254Z,9.60
2019-02-09T13:36:43.067Z,9.50
2019-02-09T13:39:12.151Z,9.50
2019-02-09T13:41:41.004Z,9.60
2019-02-09T13:44:09.932Z,9.60
2019-02-09T13:46:38.708Z,9.70
2019-02-09T13:49:07.605Z,9.80
2019-02-09T13:51:36.443Z,9.90
2019-02-09T13:54:05.316Z,9.90
2019-02-09T13:56:34.088Z,10.10
2019-02-09T13:59:02.818Z,10.10
2019-02-09T14:01:31.694Z,10.20
2019-02-09T14:04:00.482Z,10.20
2019-02-09T14:06:29.266Z,10.10
2019-02-09T14:08:57.975Z,10.10
2019-02-09T14:11:26.807Z,10.20
2019-02-09T14:13:55.607Z,10.20
2019-02-09T14:16:24.329Z,10.20
2019-02-09T14:18:53.383Z,10.30
2019-02-09T14:21:22.277Z,10.30
2019-02-09T14:23:51.039Z,10.30
2019-02-09T14:26:19.726Z,10.30
2019-02-09T14:28:48.541Z,10.20
2019-02-09T14:31:17.259Z,10.10
2019-02-09T14:33:54.542Z,10.10
2019-02-09T14:36:18.521Z,10.10
2019-02-09T14:38:47.302Z,10.10
2019-02-09T14:41:16.021Z,10.10
2019-02-09T14:43:44.731Z,10.00
2019-02-09T14:46:13.420Z,9.90
2019-02-09T14:48:42.141Z,9.90
2019-02-09T14:51:11.016Z,9.90
2019-02-09T14:53:39.740Z,10.00
2019-02-09T14:56:08.438Z,10.00
2019-02-09T14:58:37.124Z,10.10
2019-02-09T15:01:05.912Z,10.10
2019-02-09T15:03:34.723Z,10.10
2019-02-09T15:06:03.492Z,10.10
2019-02-09T15:08:32.266Z,10.00
2019-02-09T15:11:00.990Z,10.10
2019-02-09T15:13:29.727Z,10.10
2019-02-09T15:16:29.569Z,10.10
2019-02-09T15:18:59.191Z,10.10
2019-02-09T15:21:28.178Z,10.10
2019-02-09T15:23:56.935Z,10.00
2019-02-09T15:26:25.840Z,10.00
2019-02-09T15:28:54.570Z,10.00
2019-02-09T15:31:23.305Z,10.00
2019-02-09T15:33:52.171Z,9.90
2019-02-09T15:36:20.988Z,9.90
2019-02-09T15:38:49.834Z,9.90
2019-02-09T15:41:23.307Z,9.90
2019-02-09T15:43:52.090Z,9.80
2019-02-09T15:46:20.902Z,9.80
2019-02-09T15:48:49.758Z,9.70
2019-02-09T15:51:18.607Z,9.70
2019-02-09T15:53:47.462Z,9.60
2019-02-09T15:56:16.279Z,9.60
2019-02-09T15:58:45.157Z,9.50
2019-02-09T16:01:14.141Z,9.40
2019-02-09T16:03:42.987Z,9.40
2019-02-09T16:06:12.017Z,9.30
2019-02-09T16:08:40.923Z,9.30
2019-02-09T16:11:09.695Z,9.30
2019-02-09T16:13:45.321Z,9.30
2019-02-09T16:16:08.960Z,9.20
2019-02-09T16:18:37.724Z,9.20
2019-02-09T16:21:06.558Z,9.20
2019-02-09T16:23:35.346Z,9.10
2019-02-09T16:26:04.257Z,9.10
2019-02-09T16:28:33.055Z,9.00
2019-02-09T16:31:01.794Z,9.00
2019-02-09T16:33:30.611Z,9.00
2019-02-09T16:35:59.416Z,9.00
2019-02-09T16:38:28.359Z,8.90
2019-02-09T16:40:57.269Z,8.90
2019-02-09T16:43:26.002Z,8.90
2019-02-09T16:45:54.726Z,8.90
2019-02-09T16:48:23.433Z,8.80
2019-02-09T16:50:52.177Z,8.80
2019-02-09T16:53:21.118Z,8.80
2019-02-09T16:55:49.984Z,8.80
2019-02-09T16:58:18.683Z,8.80
2019-02-09T17:00:48.047Z,8.80
2019-02-09T17:03:16.801Z,8.80
2019-02-09T17:05:45.594Z,8.80
2019-02-09T17:08:14.406Z,8.80
2019-02-09T17:10:43.235Z,8.70
2019-02-09T17:13:11.943Z,8.70
2019-02-09T17:15:40.682Z,8.60
2019-02-09T17:18:09.563Z,8.60
2019-02-09T17:20:38.389Z,8.70
2019-02-09T17:23:07.449Z,8.70
2019-02-09T17:25:36.262Z,8.60
2019-02-09T17:28:05.196Z,8.60
2019-02-09T17:30:33.997Z,8.60
2019-02-09T17:33:02.902Z,8.60
2019-02-09T17:35:32.011Z,8.60
2019-02-09T17:38:00.923Z,8.60
2019-02-09T17:40:34.817Z,8.60
2019-02-09T17:43:03.617Z,8.60
2019-02-09T17:45:35.747Z,8.60
2019-02-09T17:48:04.574Z,8.60
2019-02-09T17:50:33.389Z,8.60
2019-02-09T17:53:02.315Z,8.60
2019-02-09T17:55:31.083Z,8.70
2019-02-09T17:57:59.815Z,8.70
2019-02-09T18:00:36.021Z,8.80
2019-02-09T18:03:04.850Z,8.80
2019-02-09T18:05:34.720Z,8.80
2019-02-09T18:08:03.690Z,8.80
2019-02-09T18:10:32.495Z,8.80
2019-02-09T18:13:01.299Z,8.90
2019-02-09T18:15:30.119Z,8.90
2019-02-09T18:17:58.955Z,9.00
2019-02-09T18:20:28.012Z,9.00
2019-02-09T18:22:56.762Z,9.00
2019-02-09T18:25:25.581Z,9.00
2019-02-09T18:27:54.314Z,9.00
2019-02-09T18:30:23.333Z,9.00
2019-02-09T18:32:52.165Z,9.00
2019-02-09T18:35:20.909Z,9.00
2019-02-09T18:37:50.266Z,9.00
2019-02-09T18:40:20.329Z,9.00
2019-02-09T18:42:49.247Z,8.90
2019-02-09T18:45:22.853Z,8.90
2019-02-09T18:47:51.688Z,8.90
2019-02-09T18:50:22.693Z,8.90
2019-02-09T18:52:51.495Z,8.80
2019-02-09T18:55:21.498Z,8.80
2019-02-09T18:57:50.260Z,8.70
2019-02-09T19:00:21.078Z,8.70
2019-02-09T19:02:49.915Z,8.60
2019-02-09T19:05:18.627Z,8.60
2019-02-09T19:07:47.347Z,8.60
2019-02-09T19:10:18.053Z,8.60
2019-02-09T19:12:46.846Z,8.50
2019-02-09T19:15:16.393Z,8.50
2019-02-09T19:17:45.170Z,8.50
2019-02-09T19:20:34.499Z,8.50
2019-02-09T19:23:03.321Z,8.50
2019-02-09T19:25:32.039Z,8.50
2019-02-09T19:28:00.847Z,8.50
2019-02-09T19:30:29.578Z,8.40
2019-02-09T19:32:58.367Z,8.40
2019-02-09T19:35:27.109Z,8.40
2019-02-09T19:37:55.930Z,8.50
2019-02-09T19:40:24.863Z,8.40
2019-02-09T19:42:53.658Z,8.40
2019-02-09T19:45:24.640Z,8.40
2019-02-09T19:47:53.502Z,8.40
2019-02-09T19:50:22.305Z,8.40
2019-02-09T19:52:51.207Z,8.50
2019-02-09T19:55:21.760Z,8.50
2019-02-09T19:57:50.660Z,8.40
2019-02-09T20:00:27.739Z,8.40
2019-02-09T20:02:56.698Z,8.40
2019-02-09T20:05:25.945Z,8.40
2019-02-09T20:07:55.517Z,8.40
2019-02-09T20:10:26.935Z,8.40
2019-02-09T20:12:55.849Z,8.40
2019-02-09T20:15:24.768Z,8.40
2019-02-09T20:17:53.554Z,8.50
2019-02-09T20:20:22.559Z,8.50
2019-02-09T20:22:51.610Z,8.50
2019-02-09T20:25:21.405Z,8.40
2019-02-09T20:27:50.317Z,8.50
2019-02-09T20:30:26.786Z,8.40
2019-02-09T20:32:55.778Z,8.40
2019-02-09T20:35:27.727Z,8.40
2019-02-09T20:37:55.309Z,8.40
2019-02-09T20:40:29.703Z,8.50
2019-02-09T20:43:02.156Z,8.50
2019-02-09T20:45:29.265Z,8.60
2019-02-09T20:47:58.079Z,8.70
2019-02-09T20:50:27.673Z,8.80
2019-02-09T20:52:56.621Z,8.80
2019-02-09T20:55:25.628Z,8.80
2019-02-09T20:57:54.651Z,8.80
2019-02-09T21:00:24.106Z,8.80
2019-02-09T21:02:53.052Z,8.80
2019-02-09T21:05:23.260Z,8.80
2019-02-09T21:07:52.287Z,8.90
2019-02-09T21:10:23.166Z,8.80
2019-02-09T21:12:51.989Z,8.90
2019-02-09T21:15:21.738Z,8.80
2019-02-09T21:17:50.566Z,8.80
2019-02-09T21:20:19.550Z,8.70
2019-02-09T21:22:48.373Z,8.70
2019-02-09T21:25:22.896Z,8.70
2019-02-09T21:27:51.780Z,8.70
2019-02-09T21:30:24.733Z,8.80
2019-02-09T21:32:53.775Z,8.80
2019-02-09T21:35:22.624Z,8.70
2019-02-09T21:37:51.602Z,8.70
2019-02-09T21:40:21.999Z,8.80
2019-02-09T21:42:51.073Z,8.70
2019-02-09T21:45:20.358Z,8.60
2019-02-09T21:47:49.203Z,8.60
2019-02-09T21:50:26.175Z,8.60
2019-02-09T21:52:55.013Z,8.60
2019-02-09T21:55:23.860Z,8.60
2019-02-09T21:57:55.177Z,8.60
2019-02-09T22:00:29.269Z,8.60
2019-02-09T22:02:58.239Z,8.60
2019-02-09T22:05:27.350Z,8.60
2019-02-09T22:07:56.411Z,8.60
2019-02-09T22:10:30.212Z,8.50
2019-02-09T22:12:56.001Z,8.60
2019-02-09T22:15:26.015Z,8.60
2019-02-09T22:17:54.820Z,8.50
2019-02-09T22:20:23.742Z,8.50
2019-02-09T22:22:52.724Z,8.50
2019-02-09T22:25:22.459Z,8.50
2019-02-09T22:27:51.277Z,8.50
2019-02-09T22:30:21.809Z,8.50
2019-02-09T22:32:50.887Z,8.50
2019-02-09T22:35:19.695Z,8.50
2019-02-09T22:37:48.452Z,8.50
2019-02-09T22:40:19.386Z,8.50
2019-02-09T22:42:48.320Z,8.60
2019-02-09T22:45:17.972Z,8.50
2019-02-09T22:47:46.842Z,8.60
2019-02-09T22:50:20.915Z,8.60
2019-02-09T22:52:49.675Z,8.60
2019-02-09T22:55:18.516Z,8.60
2019-02-09T22:57:47.263Z,8.60
2019-02-09T23:01:15.407Z,8.60
2019-02-09T23:03:51.259Z,8.60
2019-02-09T23:06:40.954Z,8.60
2019-02-09T23:09:15.924Z,8.60
2019-02-09T23:11:44.826Z,8.60
2019-02-09T23:14:13.636Z,8.60
2019-02-09T23:16:42.474Z,8.60
2019-02-09T23:19:11.231Z,8.60
2019-02-09T23:21:39.955Z,8.60
2019-02-09T23:24:08.727Z,8.60
2019-02-09T23:26:37.619Z,8.70
2019-02-09T23:29:06.402Z,8.70
2019-02-09T23:31:35.162Z,8.70
2019-02-09T23:34:03.922Z,8.70
2019-02-09T23:36:32.850Z,8.70
2019-02-09T23:39:01.678Z,8.70
2019-02-09T23:41:30.413Z,8.70
2019-02-09T23:43:59.163Z,8.70
2019-02-09T23:46:27.987Z,8.80
2019-02-09T23:48:56.776Z,8.60
2019-02-09T23:51:25.535Z,8.60
2019-02-09T23:53:54.264Z,8.60
2019-02-09T23:56:23.026Z,8.60
2019-02-09T23:58:52.011Z,8.60
